sensor_id;sensor_type;location;lat;lon;timestamp;temperature;humidity
23305;DHT22;11821;51.456;8.844;2022-08-21T00:00:20;18.80;99.90
23305;DHT22;11821;51.456;8.844;2022-08-21T00:03:10;18.90;99.90
23305;DHT22;11821;51.456;8.844;2022-08-21T00:05:39;18.90;99.90
23305;DHT22;11821;51.456;8.844;2022-08-21T00:08:06;18.90;99.90
23305;DHT22;11821;51.456;8.844;2022-08-21T00:10:33;18.80;99.90
23305;DHT22;11821;51.456;8.844;2022-08-21T00:13:02;18.80;99.90
23305;DHT22;11821;51.456;8.844;2022-08-21T00:15:30;18.80;99.90
23305;DHT22;11821;51.456;8.844;2022-08-21T00:17:57;18.80;99.90
23305;DHT22;11821;51.456;8.844;2022-08-21T00:20:25;18.70;99.90
23305;DHT22;11821;51.456;8.844;2022-08-21T00:22:52;18.70;99.90
23305;DHT22;11821;51.456;8.844;2022-08-21T00:25:20;18.70;99.90
23305;DHT22;11821;51.456;8.844;2022-08-21T00:27:46;18.60;99.90
23305;DHT22;11821;51.456;8.844;2022-08-21T00:30:14;18.60;99.90
23305;DHT22;11821;51.456;8.844;2022-08-21T00:32:41;18.60;99.90
23305;DHT22;11821;51.456;8.844;2022-08-21T00:35:12;18.60;99.90
23305;DHT22;11821;51.456;8.844;2022-08-21T00:37:39;18.60;99.90
23305;DHT22;11821;51.456;8.844;2022-08-21T00:40:08;18.50;99.90
23305;DHT22;11821;51.456;8.844;2022-08-21T00:42:34;18.50;99.90
23305;DHT22;11821;51.456;8.844;2022-08-21T00:45:01;18.40;99.90
23305;DHT22;11821;51.456;8.844;2022-08-21T00:47:28;18.40;99.90
23305;DHT22;11821;51.456;8.844;2022-08-21T00:49:54;18.40;99.90
23305;DHT22;11821;51.456;8.844;2022-08-21T00:52:24;18.40;99.90
23305;DHT22;11821;51.456;8.844;2022-08-21T00:54:52;18.40;99.90
23305;DHT22;11821;51.456;8.844;2022-08-21T00:57:24;18.40;99.90
23305;DHT22;11821;51.456;8.844;2022-08-21T00:59:54;18.50;99.90
23305;DHT22;11821;51.456;8.844;2022-08-21T01:02:21;18.40;99.90
23305;DHT22;11821;51.456;8.844;2022-08-21T01:04:48;18.40;99.90
23305;DHT22;11821;51.456;8.844;2022-08-21T01:07:15;18.50;99.90
23305;DHT22;11821;51.456;8.844;2022-08-21T01:09:42;18.50;99.90
23305;DHT22;11821;51.456;8.844;2022-08-21T01:12:09;18.50;99.90
23305;DHT22;11821;51.456;8.844;2022-08-21T01:14:35;18.50;99.90
23305;DHT22;11821;51.456;8.844;2022-08-21T01:17:03;18.50;99.90
23305;DHT22;11821;51.456;8.844;2022-08-21T01:19:30;18.50;99.90
23305;DHT22;11821;51.456;8.844;2022-08-21T01:21:56;18.40;99.90
23305;DHT22;11821;51.456;8.844;2022-08-21T01:24:23;18.40;99.90
23305;DHT22;11821;51.456;8.844;2022-08-21T01:26:51;18.40;99.90
23305;DHT22;11821;51.456;8.844;2022-08-21T01:32:10;18.30;99.90
23305;DHT22;11821;51.456;8.844;2022-08-21T01:34:39;18.30;99.90
23305;DHT22;11821;51.456;8.844;2022-08-21T01:37:06;18.20;99.90
23305;DHT22;11821;51.456;8.844;2022-08-21T01:39:33;18.10;99.90
23305;DHT22;11821;51.456;8.844;2022-08-21T01:41:59;18.20;99.90
23305;DHT22;11821;51.456;8.844;2022-08-21T01:44:26;18.10;99.90
23305;DHT22;11821;51.456;8.844;2022-08-21T01:46:54;18.10;99.90
23305;DHT22;11821;51.456;8.844;2022-08-21T01:49:21;18.10;99.90
23305;DHT22;11821;51.456;8.844;2022-08-21T01:51:47;17.90;99.90
23305;DHT22;11821;51.456;8.844;2022-08-21T01:54:13;17.90;99.90
23305;DHT22;11821;51.456;8.844;2022-08-21T01:56:45;17.90;99.90
23305;DHT22;11821;51.456;8.844;2022-08-21T01:59:12;17.90;99.90
23305;DHT22;11821;51.456;8.844;2022-08-21T02:01:39;17.90;99.90
23305;DHT22;11821;51.456;8.844;2022-08-21T02:04:07;17.80;99.90
23305;DHT22;11821;51.456;8.844;2022-08-21T02:06:34;17.70;99.90
23305;DHT22;11821;51.456;8.844;2022-08-21T02:09:04;17.70;99.90
23305;DHT22;11821;51.456;8.844;2022-08-21T02:11:32;17.70;99.90
23305;DHT22;11821;51.456;8.844;2022-08-21T02:13:58;17.70;99.90
23305;DHT22;11821;51.456;8.844;2022-08-21T02:16:25;17.70;99.90
23305;DHT22;11821;51.456;8.844;2022-08-21T02:18:51;17.70;99.90
23305;DHT22;11821;51.456;8.844;2022-08-21T02:21:18;17.70;99.90
23305;DHT22;11821;51.456;8.844;2022-08-21T02:23:45;17.60;99.90
23305;DHT22;11821;51.456;8.844;2022-08-21T02:26:12;17.60;99.90
23305;DHT22;11821;51.456;8.844;2022-08-21T02:28:40;17.60;99.90
23305;DHT22;11821;51.456;8.844;2022-08-21T02:31:06;17.60;99.90
23305;DHT22;11821;51.456;8.844;2022-08-21T02:33:33;17.60;99.90
23305;DHT22;11821;51.456;8.844;2022-08-21T02:36:00;17.50;99.90
23305;DHT22;11821;51.456;8.844;2022-08-21T02:38:29;17.50;99.90
23305;DHT22;11821;51.456;8.844;2022-08-21T02:40:56;17.40;99.90
23305;DHT22;11821;51.456;8.844;2022-08-21T02:43:25;17.40;99.90
23305;DHT22;11821;51.456;8.844;2022-08-21T02:45:52;17.40;99.90
23305;DHT22;11821;51.456;8.844;2022-08-21T02:48:22;17.50;99.90
23305;DHT22;11821;51.456;8.844;2022-08-21T02:50:57;17.40;99.90
23305;DHT22;11821;51.456;8.844;2022-08-21T02:53:24;17.40;99.90
23305;DHT22;11821;51.456;8.844;2022-08-21T02:55:52;17.30;99.90
23305;DHT22;11821;51.456;8.844;2022-08-21T02:58:22;17.30;99.90
23305;DHT22;11821;51.456;8.844;2022-08-21T03:00:48;17.30;99.90
23305;DHT22;11821;51.456;8.844;2022-08-21T03:03:15;17.20;99.90
23305;DHT22;11821;51.456;8.844;2022-08-21T03:05:43;17.20;99.90
23305;DHT22;11821;51.456;8.844;2022-08-21T03:08:11;17.30;99.90
23305;DHT22;11821;51.456;8.844;2022-08-21T03:10:40;17.20;99.90
23305;DHT22;11821;51.456;8.844;2022-08-21T03:13:07;17.20;99.90
23305;DHT22;11821;51.456;8.844;2022-08-21T03:15:35;17.20;99.90
23305;DHT22;11821;51.456;8.844;2022-08-21T03:18:02;17.30;99.90
23305;DHT22;11821;51.456;8.844;2022-08-21T03:20:30;17.20;99.90
23305;DHT22;11821;51.456;8.844;2022-08-21T03:22:58;17.20;99.90
23305;DHT22;11821;51.456;8.844;2022-08-21T03:25:25;17.20;99.90
23305;DHT22;11821;51.456;8.844;2022-08-21T03:27:51;17.10;99.90
23305;DHT22;11821;51.456;8.844;2022-08-21T03:30:20;17.10;99.90
23305;DHT22;11821;51.456;8.844;2022-08-21T03:32:47;17.10;99.90
23305;DHT22;11821;51.456;8.844;2022-08-21T03:35:14;17.10;99.90
23305;DHT22;11821;51.456;8.844;2022-08-21T03:37:40;17.20;99.90
23305;DHT22;11821;51.456;8.844;2022-08-21T03:40:08;17.10;99.90
23305;DHT22;11821;51.456;8.844;2022-08-21T03:42:35;17.10;99.90
23305;DHT22;11821;51.456;8.844;2022-08-21T03:45:02;17.00;99.90
23305;DHT22;11821;51.456;8.844;2022-08-21T03:47:28;17.00;99.90
23305;DHT22;11821;51.456;8.844;2022-08-21T03:49:54;17.00;99.90
23305;DHT22;11821;51.456;8.844;2022-08-21T03:52:21;17.10;99.90
23305;DHT22;11821;51.456;8.844;2022-08-21T03:54:47;17.10;99.90
23305;DHT22;11821;51.456;8.844;2022-08-21T03:57:13;17.10;99.90
23305;DHT22;11821;51.456;8.844;2022-08-21T03:59:40;17.10;99.90
23305;DHT22;11821;51.456;8.844;2022-08-21T04:02:07;17.10;99.90
23305;DHT22;11821;51.456;8.844;2022-08-21T04:04:34;17.10;99.90
23305;DHT22;11821;51.456;8.844;2022-08-21T04:07:01;17.00;99.90
23305;DHT22;11821;51.456;8.844;2022-08-21T04:09:27;17.10;99.90
23305;DHT22;11821;51.456;8.844;2022-08-21T04:11:53;17.10;99.90
23305;DHT22;11821;51.456;8.844;2022-08-21T04:14:20;17.00;99.90
23305;DHT22;11821;51.456;8.844;2022-08-21T04:16:46;17.00;99.90
23305;DHT22;11821;51.456;8.844;2022-08-21T04:19:13;17.10;99.90
23305;DHT22;11821;51.456;8.844;2022-08-21T04:21:40;17.10;99.90
23305;DHT22;11821;51.456;8.844;2022-08-21T04:24:08;17.10;99.90
23305;DHT22;11821;51.456;8.844;2022-08-21T04:26:37;17.10;99.90
23305;DHT22;11821;51.456;8.844;2022-08-21T04:29:04;17.10;99.90
23305;DHT22;11821;51.456;8.844;2022-08-21T04:31:33;17.20;99.90
23305;DHT22;11821;51.456;8.844;2022-08-21T04:34:00;17.10;99.90
23305;DHT22;11821;51.456;8.844;2022-08-21T04:36:26;17.10;99.90
23305;DHT22;11821;51.456;8.844;2022-08-21T04:38:52;17.20;99.90
23305;DHT22;11821;51.456;8.844;2022-08-21T04:41:19;17.20;99.90
23305;DHT22;11821;51.456;8.844;2022-08-21T04:43:45;17.20;99.90
23305;DHT22;11821;51.456;8.844;2022-08-21T04:46:11;17.20;99.90
23305;DHT22;11821;51.456;8.844;2022-08-21T04:48:37;17.30;99.90
23305;DHT22;11821;51.456;8.844;2022-08-21T04:51:23;17.30;99.90
23305;DHT22;11821;51.456;8.844;2022-08-21T04:54:08;17.30;99.90
23305;DHT22;11821;51.456;8.844;2022-08-21T04:56:39;17.20;99.90
23305;DHT22;11821;51.456;8.844;2022-08-21T04:59:13;17.30;99.90
23305;DHT22;11821;51.456;8.844;2022-08-21T05:01:42;17.20;99.90
23305;DHT22;11821;51.456;8.844;2022-08-21T05:04:12;17.20;99.90
23305;DHT22;11821;51.456;8.844;2022-08-21T05:06:41;17.20;99.90
23305;DHT22;11821;51.456;8.844;2022-08-21T05:09:09;17.20;99.90
23305;DHT22;11821;51.456;8.844;2022-08-21T05:11:37;17.30;99.90
23305;DHT22;11821;51.456;8.844;2022-08-21T05:14:04;17.30;99.90
23305;DHT22;11821;51.456;8.844;2022-08-21T05:16:30;17.30;99.90
23305;DHT22;11821;51.456;8.844;2022-08-21T05:18:56;17.40;99.90
23305;DHT22;11821;51.456;8.844;2022-08-21T05:21:22;17.30;99.90
23305;DHT22;11821;51.456;8.844;2022-08-21T05:23:48;17.40;99.90
23305;DHT22;11821;51.456;8.844;2022-08-21T05:26:14;17.40;99.90
23305;DHT22;11821;51.456;8.844;2022-08-21T05:28:41;17.40;99.90
23305;DHT22;11821;51.456;8.844;2022-08-21T05:31:07;17.50;99.90
23305;DHT22;11821;51.456;8.844;2022-08-21T05:33:33;17.60;99.90
23305;DHT22;11821;51.456;8.844;2022-08-21T05:36:00;17.60;99.90
23305;DHT22;11821;51.456;8.844;2022-08-21T05:38:26;17.70;99.90
23305;DHT22;11821;51.456;8.844;2022-08-21T05:40:54;17.80;99.90
23305;DHT22;11821;51.456;8.844;2022-08-21T05:43:20;17.80;99.90
23305;DHT22;11821;51.456;8.844;2022-08-21T05:45:47;17.80;99.90
23305;DHT22;11821;51.456;8.844;2022-08-21T05:48:16;18.00;99.90
23305;DHT22;11821;51.456;8.844;2022-08-21T05:50:44;18.10;99.90
23305;DHT22;11821;51.456;8.844;2022-08-21T05:53:11;18.10;99.90
23305;DHT22;11821;51.456;8.844;2022-08-21T05:55:38;18.20;99.90
23305;DHT22;11821;51.456;8.844;2022-08-21T05:58:04;18.20;99.90
23305;DHT22;11821;51.456;8.844;2022-08-21T06:00:31;18.40;99.90
23305;DHT22;11821;51.456;8.844;2022-08-21T06:02:58;18.40;99.90
23305;DHT22;11821;51.456;8.844;2022-08-21T06:05:24;18.40;99.90
23305;DHT22;11821;51.456;8.844;2022-08-21T06:07:50;18.50;99.90
23305;DHT22;11821;51.456;8.844;2022-08-21T06:10:17;18.70;99.90
23305;DHT22;11821;51.456;8.844;2022-08-21T06:12:43;18.70;99.90
23305;DHT22;11821;51.456;8.844;2022-08-21T06:15:10;18.70;99.90
23305;DHT22;11821;51.456;8.844;2022-08-21T06:17:37;18.70;99.90
23305;DHT22;11821;51.456;8.844;2022-08-21T06:20:03;18.70;99.90
23305;DHT22;11821;51.456;8.844;2022-08-21T06:22:30;18.70;99.90
23305;DHT22;11821;51.456;8.844;2022-08-21T06:24:56;18.80;99.90
23305;DHT22;11821;51.456;8.844;2022-08-21T06:27:23;18.80;99.90
23305;DHT22;11821;51.456;8.844;2022-08-21T06:29:49;18.90;99.90
23305;DHT22;11821;51.456;8.844;2022-08-21T06:32:15;18.90;99.90
23305;DHT22;11821;51.456;8.844;2022-08-21T06:34:41;19.00;99.90
23305;DHT22;11821;51.456;8.844;2022-08-21T06:37:08;19.10;99.90
23305;DHT22;11821;51.456;8.844;2022-08-21T06:39:35;19.10;99.90
23305;DHT22;11821;51.456;8.844;2022-08-21T06:42:01;19.20;99.90
23305;DHT22;11821;51.456;8.844;2022-08-21T06:44:30;19.30;99.90
23305;DHT22;11821;51.456;8.844;2022-08-21T06:46:56;19.50;99.90
23305;DHT22;11821;51.456;8.844;2022-08-21T06:49:23;19.50;99.90
23305;DHT22;11821;51.456;8.844;2022-08-21T06:51:49;19.60;99.90
23305;DHT22;11821;51.456;8.844;2022-08-21T06:54:16;19.80;99.90
23305;DHT22;11821;51.456;8.844;2022-08-21T06:56:42;19.90;99.90
23305;DHT22;11821;51.456;8.844;2022-08-21T06:59:08;20.10;99.90
23305;DHT22;11821;51.456;8.844;2022-08-21T07:01:34;20.30;99.90
23305;DHT22;11821;51.456;8.844;2022-08-21T07:04:00;20.60;99.90
23305;DHT22;11821;51.456;8.844;2022-08-21T07:06:27;20.70;99.90
23305;DHT22;11821;51.456;8.844;2022-08-21T07:08:53;20.90;99.90
23305;DHT22;11821;51.456;8.844;2022-08-21T07:11:21;21.10;99.90
23305;DHT22;11821;51.456;8.844;2022-08-21T07:13:48;21.30;99.90
23305;DHT22;11821;51.456;8.844;2022-08-21T07:16:15;21.50;99.90
23305;DHT22;11821;51.456;8.844;2022-08-21T07:18:41;21.70;99.90
23305;DHT22;11821;51.456;8.844;2022-08-21T07:21:08;21.80;99.90
23305;DHT22;11821;51.456;8.844;2022-08-21T07:23:37;22.00;99.90
23305;DHT22;11821;51.456;8.844;2022-08-21T07:26:05;22.20;99.90
23305;DHT22;11821;51.456;8.844;2022-08-21T07:28:32;22.40;99.90
23305;DHT22;11821;51.456;8.844;2022-08-21T07:30:59;22.60;99.90
23305;DHT22;11821;51.456;8.844;2022-08-21T07:33:27;22.90;99.90
23305;DHT22;11821;51.456;8.844;2022-08-21T07:35:54;23.00;99.90
23305;DHT22;11821;51.456;8.844;2022-08-21T07:38:21;23.20;99.90
23305;DHT22;11821;51.456;8.844;2022-08-21T07:40:48;23.40;99.90
23305;DHT22;11821;51.456;8.844;2022-08-21T07:43:15;23.70;99.90
23305;DHT22;11821;51.456;8.844;2022-08-21T07:45:45;23.80;99.90
23305;DHT22;11821;51.456;8.844;2022-08-21T07:48:11;23.90;99.90
23305;DHT22;11821;51.456;8.844;2022-08-21T07:50:38;24.10;99.90
23305;DHT22;11821;51.456;8.844;2022-08-21T07:53:05;24.30;99.90
23305;DHT22;11821;51.456;8.844;2022-08-21T07:55:33;24.50;99.90
23305;DHT22;11821;51.456;8.844;2022-08-21T07:58:00;24.70;99.90
23305;DHT22;11821;51.456;8.844;2022-08-21T08:00:27;24.90;99.90
23305;DHT22;11821;51.456;8.844;2022-08-21T08:02:55;25.00;99.90
23305;DHT22;11821;51.456;8.844;2022-08-21T08:05:25;25.10;99.90
23305;DHT22;11821;51.456;8.844;2022-08-21T08:07:52;25.30;99.90
23305;DHT22;11821;51.456;8.844;2022-08-21T08:10:18;25.70;99.90
23305;DHT22;11821;51.456;8.844;2022-08-21T08:12:45;25.80;99.90
23305;DHT22;11821;51.456;8.844;2022-08-21T08:15:16;25.90;99.90
23305;DHT22;11821;51.456;8.844;2022-08-21T08:17:42;26.20;99.30
23305;DHT22;11821;51.456;8.844;2022-08-21T08:20:14;26.20;96.70
23305;DHT22;11821;51.456;8.844;2022-08-21T08:22:41;26.30;97.10
23305;DHT22;11821;51.456;8.844;2022-08-21T08:25:11;26.40;95.50
23305;DHT22;11821;51.456;8.844;2022-08-21T08:27:38;26.30;95.80
23305;DHT22;11821;51.456;8.844;2022-08-21T08:30:05;26.40;95.30
23305;DHT22;11821;51.456;8.844;2022-08-21T08:32:32;26.60;95.00
23305;DHT22;11821;51.456;8.844;2022-08-21T08:34:59;26.80;94.80
23305;DHT22;11821;51.456;8.844;2022-08-21T08:37:25;26.90;94.70
23305;DHT22;11821;51.456;8.844;2022-08-21T08:39:51;27.10;94.00
23305;DHT22;11821;51.456;8.844;2022-08-21T08:42:27;27.30;93.90
23305;DHT22;11821;51.456;8.844;2022-08-21T08:45:10;27.20;93.30
23305;DHT22;11821;51.456;8.844;2022-08-21T08:47:44;27.30;93.70
23305;DHT22;11821;51.456;8.844;2022-08-21T08:50:24;27.50;94.30
23305;DHT22;11821;51.456;8.844;2022-08-21T08:53:02;27.90;93.80
23305;DHT22;11821;51.456;8.844;2022-08-21T08:55:39;28.10;92.60
23305;DHT22;11821;51.456;8.844;2022-08-21T08:58:08;27.60;92.90
23305;DHT22;11821;51.456;8.844;2022-08-21T09:00:34;27.50;92.50
23305;DHT22;11821;51.456;8.844;2022-08-21T09:03:02;27.50;92.80
23305;DHT22;11821;51.456;8.844;2022-08-21T09:05:50;27.90;92.20
23305;DHT22;11821;51.456;8.844;2022-08-21T09:08:46;28.20;92.00
23305;DHT22;11821;51.456;8.844;2022-08-21T09:14:45;28.40;91.30
23305;DHT22;11821;51.456;8.844;2022-08-21T09:17:37;28.50;91.80
23305;DHT22;11821;51.456;8.844;2022-08-21T09:20:17;28.40;91.10
23305;DHT22;11821;51.456;8.844;2022-08-21T09:25:36;28.90;90.20
23305;DHT22;11821;51.456;8.844;2022-08-21T09:28:08;29.00;90.90
23305;DHT22;11821;51.456;8.844;2022-08-21T09:30:34;29.20;89.70
23305;DHT22;11821;51.456;8.844;2022-08-21T09:33:01;29.30;88.30
23305;DHT22;11821;51.456;8.844;2022-08-21T09:35:27;29.20;88.90
23305;DHT22;11821;51.456;8.844;2022-08-21T09:38:06;29.30;89.40
23305;DHT22;11821;51.456;8.844;2022-08-21T09:40:40;29.40;86.10
23305;DHT22;11821;51.456;8.844;2022-08-21T09:43:21;29.50;87.90
23305;DHT22;11821;51.456;8.844;2022-08-21T09:46:02;29.70;86.40
23305;DHT22;11821;51.456;8.844;2022-08-21T09:48:29;29.80;86.70
23305;DHT22;11821;51.456;8.844;2022-08-21T09:51:07;29.80;85.70
23305;DHT22;11821;51.456;8.844;2022-08-21T09:53:34;30.10;87.10
23305;DHT22;11821;51.456;8.844;2022-08-21T09:56:14;30.40;87.40
23305;DHT22;11821;51.456;8.844;2022-08-21T09:59:00;30.40;84.40
23305;DHT22;11821;51.456;8.844;2022-08-21T10:01:27;30.40;83.40
23305;DHT22;11821;51.456;8.844;2022-08-21T10:06:30;30.80;84.40
23305;DHT22;11821;51.456;8.844;2022-08-21T10:09:11;30.90;84.60
23305;DHT22;11821;51.456;8.844;2022-08-21T10:11:39;30.80;82.90
23305;DHT22;11821;51.456;8.844;2022-08-21T10:22:25;30.90;81.50
23305;DHT22;11821;51.456;8.844;2022-08-21T10:25:13;30.70;79.40
23305;DHT22;11821;51.456;8.844;2022-08-21T10:30:51;30.50;80.10
23305;DHT22;11821;51.456;8.844;2022-08-21T10:33:46;30.50;82.30
23305;DHT22;11821;51.456;8.844;2022-08-21T10:36:23;30.80;79.20
23305;DHT22;11821;51.456;8.844;2022-08-21T10:47:44;31.10;80.20
23305;DHT22;11821;51.456;8.844;2022-08-21T10:50:30;31.50;79.70
23305;DHT22;11821;51.456;8.844;2022-08-21T10:55:42;31.60;79.20
23305;DHT22;11821;51.456;8.844;2022-08-21T10:58:16;31.70;75.70
23305;DHT22;11821;51.456;8.844;2022-08-21T11:00:50;32.00;82.30
23305;DHT22;11821;51.456;8.844;2022-08-21T11:03:41;32.20;80.60
23305;DHT22;11821;51.456;8.844;2022-08-21T11:06:42;31.90;76.50
23305;DHT22;11821;51.456;8.844;2022-08-21T11:09:19;31.90;76.50
23305;DHT22;11821;51.456;8.844;2022-08-21T11:12:19;31.90;77.10
23305;DHT22;11821;51.456;8.844;2022-08-21T11:17:14;32.10;78.80
23305;DHT22;11821;51.456;8.844;2022-08-21T11:20:10;32.10;77.70
23305;DHT22;11821;51.456;8.844;2022-08-21T11:22:48;32.30;75.10
23305;DHT22;11821;51.456;8.844;2022-08-21T11:28:08;32.30;77.50
23305;DHT22;11821;51.456;8.844;2022-08-21T11:38:46;32.50;76.60
23305;DHT22;11821;51.456;8.844;2022-08-21T11:41:29;32.50;78.10
23305;DHT22;11821;51.456;8.844;2022-08-21T11:46:48;32.80;78.70
23305;DHT22;11821;51.456;8.844;2022-08-21T11:54:53;32.00;78.60
23305;DHT22;11821;51.456;8.844;2022-08-21T12:03:29;31.60;78.80
23305;DHT22;11821;51.456;8.844;2022-08-21T12:06:00;32.20;78.80
23305;DHT22;11821;51.456;8.844;2022-08-21T12:11:06;31.80;79.10
23305;DHT22;11821;51.456;8.844;2022-08-21T12:13:38;31.60;79.50
23305;DHT22;11821;51.456;8.844;2022-08-21T12:16:24;31.50;77.60
23305;DHT22;11821;51.456;8.844;2022-08-21T12:24:47;32.80;77.70
23305;DHT22;11821;51.456;8.844;2022-08-21T12:29:59;32.80;79.20
23305;DHT22;11821;51.456;8.844;2022-08-21T12:33:17;32.90;80.10
23305;DHT22;11821;51.456;8.844;2022-08-21T12:35:24;32.20;79.10
23305;DHT22;11821;51.456;8.844;2022-08-21T12:40:40;32.30;80.10
23305;DHT22;11821;51.456;8.844;2022-08-21T12:43:14;32.40;79.00
23305;DHT22;11821;51.456;8.844;2022-08-21T12:45:46;32.60;80.40
23305;DHT22;11821;51.456;8.844;2022-08-21T12:50:58;32.80;78.60
23305;DHT22;11821;51.456;8.844;2022-08-21T12:56:11;32.40;79.50
23305;DHT22;11821;51.456;8.844;2022-08-21T12:58:44;31.90;79.30
23305;DHT22;11821;51.456;8.844;2022-08-21T13:01:50;31.40;79.50
23305;DHT22;11821;51.456;8.844;2022-08-21T13:04:22;31.30;80.60
23305;DHT22;11821;51.456;8.844;2022-08-21T13:06:51;31.60;83.50
23305;DHT22;11821;51.456;8.844;2022-08-21T13:09:26;31.80;80.60
23305;DHT22;11821;51.456;8.844;2022-08-21T13:11:53;31.70;82.60
23305;DHT22;11821;51.456;8.844;2022-08-21T13:14:33;31.70;81.90
23305;DHT22;11821;51.456;8.844;2022-08-21T13:17:01;31.90;83.80
23305;DHT22;11821;51.456;8.844;2022-08-21T13:19:29;32.30;79.80
23305;DHT22;11821;51.456;8.844;2022-08-21T13:21:56;32.60;80.30
23305;DHT22;11821;51.456;8.844;2022-08-21T13:24:25;32.80;76.60
23305;DHT22;11821;51.456;8.844;2022-08-21T13:26:52;32.80;74.80
23305;DHT22;11821;51.456;8.844;2022-08-21T13:29:22;32.70;78.90
23305;DHT22;11821;51.456;8.844;2022-08-21T13:31:56;32.40;77.80
23305;DHT22;11821;51.456;8.844;2022-08-21T13:34:25;32.60;76.30
23305;DHT22;11821;51.456;8.844;2022-08-21T13:37:08;32.80;77.70
23305;DHT22;11821;51.456;8.844;2022-08-21T13:39:37;32.60;78.70
23305;DHT22;11821;51.456;8.844;2022-08-21T13:42:08;32.50;78.00
23305;DHT22;11821;51.456;8.844;2022-08-21T13:44:40;32.40;77.70
23305;DHT22;11821;51.456;8.844;2022-08-21T13:47:10;32.10;77.00
23305;DHT22;11821;51.456;8.844;2022-08-21T13:49:43;32.00;79.70
23305;DHT22;11821;51.456;8.844;2022-08-21T13:52:29;31.90;80.80
23305;DHT22;11821;51.456;8.844;2022-08-21T13:55:11;31.40;78.80
23305;DHT22;11821;51.456;8.844;2022-08-21T13:57:38;31.10;76.50
23305;DHT22;11821;51.456;8.844;2022-08-21T14:00:18;31.40;84.00
23305;DHT22;11821;51.456;8.844;2022-08-21T14:02:49;31.60;82.10
23305;DHT22;11821;51.456;8.844;2022-08-21T14:05:25;31.60;80.50
23305;DHT22;11821;51.456;8.844;2022-08-21T14:08:00;31.40;77.40
23305;DHT22;11821;51.456;8.844;2022-08-21T14:10:27;31.40;78.50
23305;DHT22;11821;51.456;8.844;2022-08-21T14:13:00;31.40;80.00
23305;DHT22;11821;51.456;8.844;2022-08-21T14:15:30;31.30;78.20
23305;DHT22;11821;51.456;8.844;2022-08-21T14:18:15;31.40;77.20
23305;DHT22;11821;51.456;8.844;2022-08-21T14:20:42;30.90;78.50
23305;DHT22;11821;51.456;8.844;2022-08-21T14:23:09;31.10;79.80
23305;DHT22;11821;51.456;8.844;2022-08-21T14:25:42;30.90;81.10
23305;DHT22;11821;51.456;8.844;2022-08-21T14:28:23;30.70;78.80
23305;DHT22;11821;51.456;8.844;2022-08-21T14:30:52;30.80;79.00
23305;DHT22;11821;51.456;8.844;2022-08-21T14:33:26;30.70;79.70
23305;DHT22;11821;51.456;8.844;2022-08-21T14:35:53;30.60;80.60
23305;DHT22;11821;51.456;8.844;2022-08-21T14:38:23;30.80;80.00
23305;DHT22;11821;51.456;8.844;2022-08-21T14:40:54;30.40;80.20
23305;DHT22;11821;51.456;8.844;2022-08-21T14:43:21;30.50;78.70
23305;DHT22;11821;51.456;8.844;2022-08-21T14:45:47;30.70;81.20
23305;DHT22;11821;51.456;8.844;2022-08-21T14:48:14;30.80;81.10
23305;DHT22;11821;51.456;8.844;2022-08-21T14:50:40;30.80;79.70
23305;DHT22;11821;51.456;8.844;2022-08-21T14:53:06;30.50;81.60
23305;DHT22;11821;51.456;8.844;2022-08-21T14:55:33;30.40;80.60
23305;DHT22;11821;51.456;8.844;2022-08-21T14:58:22;30.30;78.80
23305;DHT22;11821;51.456;8.844;2022-08-21T15:00:50;30.20;79.20
23305;DHT22;11821;51.456;8.844;2022-08-21T15:03:17;30.10;83.70
23305;DHT22;11821;51.456;8.844;2022-08-21T15:05:43;30.20;81.30
23305;DHT22;11821;51.456;8.844;2022-08-21T15:08:09;30.20;83.30
23305;DHT22;11821;51.456;8.844;2022-08-21T15:10:35;30.10;82.90
23305;DHT22;11821;51.456;8.844;2022-08-21T15:13:02;30.00;79.00
23305;DHT22;11821;51.456;8.844;2022-08-21T15:15:32;30.10;81.60
23305;DHT22;11821;51.456;8.844;2022-08-21T15:18:00;30.10;82.30
23305;DHT22;11821;51.456;8.844;2022-08-21T15:20:26;30.00;80.10
23305;DHT22;11821;51.456;8.844;2022-08-21T15:22:52;29.80;83.00
23305;DHT22;11821;51.456;8.844;2022-08-21T15:25:18;29.70;80.30
23305;DHT22;11821;51.456;8.844;2022-08-21T15:27:45;29.60;82.80
23305;DHT22;11821;51.456;8.844;2022-08-21T15:30:11;29.80;82.90
23305;DHT22;11821;51.456;8.844;2022-08-21T15:32:37;29.50;79.00
23305;DHT22;11821;51.456;8.844;2022-08-21T15:35:04;29.50;81.60
23305;DHT22;11821;51.456;8.844;2022-08-21T15:37:31;29.30;83.20
23305;DHT22;11821;51.456;8.844;2022-08-21T15:39:57;29.00;79.50
23305;DHT22;11821;51.456;8.844;2022-08-21T15:42:24;28.90;83.70
23305;DHT22;11821;51.456;8.844;2022-08-21T15:44:59;29.00;84.00
23305;DHT22;11821;51.456;8.844;2022-08-21T15:47:32;29.20;82.50
23305;DHT22;11821;51.456;8.844;2022-08-21T15:50:06;29.20;82.60
23305;DHT22;11821;51.456;8.844;2022-08-21T15:52:36;29.30;83.40
23305;DHT22;11821;51.456;8.844;2022-08-21T15:55:07;29.20;82.00
23305;DHT22;11821;51.456;8.844;2022-08-21T15:57:34;29.00;82.90
23305;DHT22;11821;51.456;8.844;2022-08-21T16:00:12;28.90;83.30
23305;DHT22;11821;51.456;8.844;2022-08-21T16:02:44;28.90;83.60
23305;DHT22;11821;51.456;8.844;2022-08-21T16:05:12;29.00;83.20
23305;DHT22;11821;51.456;8.844;2022-08-21T16:07:39;28.70;82.30
23305;DHT22;11821;51.456;8.844;2022-08-21T16:10:06;28.60;82.40
23305;DHT22;11821;51.456;8.844;2022-08-21T16:12:41;28.60;82.50
23305;DHT22;11821;51.456;8.844;2022-08-21T16:15:11;28.40;83.50
23305;DHT22;11821;51.456;8.844;2022-08-21T16:17:41;28.30;81.50
23305;DHT22;11821;51.456;8.844;2022-08-21T16:20:12;28.10;82.70
23305;DHT22;11821;51.456;8.844;2022-08-21T16:22:38;28.30;85.10
23305;DHT22;11821;51.456;8.844;2022-08-21T16:25:06;28.10;84.90
23305;DHT22;11821;51.456;8.844;2022-08-21T16:27:33;28.20;84.50
23305;DHT22;11821;51.456;8.844;2022-08-21T16:30:00;28.00;85.20
23305;DHT22;11821;51.456;8.844;2022-08-21T16:32:27;27.90;85.50
23305;DHT22;11821;51.456;8.844;2022-08-21T16:34:54;27.90;84.00
23305;DHT22;11821;51.456;8.844;2022-08-21T16:37:21;27.90;85.50
23305;DHT22;11821;51.456;8.844;2022-08-21T16:39:48;28.00;86.50
23305;DHT22;11821;51.456;8.844;2022-08-21T16:42:18;27.80;86.00
23305;DHT22;11821;51.456;8.844;2022-08-21T16:44:46;27.40;85.70
23305;DHT22;11821;51.456;8.844;2022-08-21T16:47:13;27.50;86.20
23305;DHT22;11821;51.456;8.844;2022-08-21T16:49:39;27.50;85.80
23305;DHT22;11821;51.456;8.844;2022-08-21T16:52:05;27.40;88.50
23305;DHT22;11821;51.456;8.844;2022-08-21T16:54:32;27.50;86.90
23305;DHT22;11821;51.456;8.844;2022-08-21T16:56:59;27.30;89.00
23305;DHT22;11821;51.456;8.844;2022-08-21T16:59:25;27.30;85.80
23305;DHT22;11821;51.456;8.844;2022-08-21T17:01:53;27.30;90.00
23305;DHT22;11821;51.456;8.844;2022-08-21T17:04:20;27.20;88.60
23305;DHT22;11821;51.456;8.844;2022-08-21T17:06:47;27.10;86.70